createdAt,value
2019-06-20T00:46:32.950Z,19.10
2019-06-20T00:51:41.338Z,19.40
2019-06-20T00:56:48.563Z,19.50
2019-06-20T01:01:56.206Z,19.40
2019-06-20T01:07:03.105Z,19.30
2019-06-20T01:12:10.053Z,18.60
2019-06-20T01:17:17.853Z,18.70
2019-06-20T01:22:25.270Z,18.40
2019-06-20T01:27:32.814Z,18.40
2019-06-20T01:32:40.768Z,18.40
2019-06-20T01:37:48.256Z,18.30
2019-06-20T01:42:56.116Z,18.20
2019-06-20T01:48:04.521Z,18.30
2019-06-20T01:53:13.337Z,18.50
2019-06-20T01:58:22.527Z,18.40
2019-06-20T02:03:30.671Z,18.20
2019-06-20T02:08:38.727Z,18.10
2019-06-20T02:13:47.134Z,18.00
2019-06-20T02:18:55.149Z,18.00
2019-06-20T02:24:06.235Z,18.30
2019-06-20T02:29:20.304Z,18.10
2019-06-20T02:34:27.958Z,18.00
2019-06-20T02:39:35.855Z,17.90
2019-06-20T02:44:47.380Z,18.10
2019-06-20T02:49:56.269Z,18.10
2019-06-20T02:55:04.128Z,18.00
2019-06-20T03:00:16.330Z,17.90
2019-06-20T03:05:24.173Z,17.90
2019-06-20T03:10:35.466Z,18.00
2019-06-20T03:15:42.929Z,17.90
2019-06-20T03:20:50.216Z,17.80
2019-06-20T03:26:02.073Z,17.90
2019-06-20T03:31:08.994Z,17.90
2019-06-20T03:36:16.004Z,18.10
2019-06-20T03:41:22.811Z,18.10
2019-06-20T03:46:29.547Z,18.10
2019-06-20T03:51:36.573Z,18.10
2019-06-20T03:56:48.248Z,18.10
2019-06-20T04:01:54.777Z,18.10
2019-06-20T04:07:02.357Z,18.10
2019-06-20T04:12:15.361Z,18.10
2019-06-20T04:17:23.039Z,18.20
2019-06-20T04:22:32.274Z,18.30
2019-06-20T04:27:39.815Z,18.30
2019-06-20T04:32:48.017Z,18.30
2019-06-20T04:37:59.914Z,18.30
2019-06-20T04:43:11.995Z,18.50
2019-06-20T04:48:23.734Z,18.50
2019-06-20T04:53:32.403Z,18.60
2019-06-20T04:58:40.741Z,18.60
2019-06-20T05:03:49.043Z,18.70
2019-06-20T05:08:57.083Z,18.70
2019-06-20T05:14:04.951Z,18.90
2019-06-20T05:19:12.869Z,18.80
2019-06-20T05:24:26.087Z,18.80
2019-06-20T05:29:34.878Z,18.90
2019-06-20T05:34:42.325Z,19.10
2019-06-20T05:39:51.246Z,19.40
2019-06-20T05:45:04.254Z,19.60
2019-06-20T05:50:16.333Z,19.80
2019-06-20T05:55:25.785Z,19.70
2019-06-20T06:00:37.963Z,19.60
2019-06-20T06:05:45.899Z,19.60
2019-06-20T06:10:58.852Z,19.90
2019-06-20T06:16:07.380Z,20.00
2019-06-20T06:21:14.774Z,20.10
2019-06-20T06:26:23.255Z,20.20
2019-06-20T06:31:34.712Z,20.30
2019-06-20T06:36:42.144Z,20.40
2019-06-20T06:41:51.874Z,20.60
2019-06-20T06:47:00.634Z,20.80
2019-06-20T06:52:17.375Z,20.80
2019-06-20T06:57:27.914Z,21.10
2019-06-20T07:02:39.640Z,21.10
2019-06-20T07:07:51.286Z,21.30
2019-06-20T07:13:10.793Z,21.20
2019-06-20T07:18:20.182Z,21.10
2019-06-20T07:23:35.002Z,21.20
2019-06-20T07:28:47.240Z,21.40
2019-06-20T07:34:03.131Z,21.70
2019-06-20T07:39:15.590Z,21.60
2019-06-20T07:44:24.023Z,21.60
2019-06-20T07:49:32.025Z,21.70
2019-06-20T07:54:40.061Z,21.60
2019-06-20T07:59:52.539Z,21.40
2019-06-20T08:05:00.960Z,21.40
2019-06-20T08:10:10.795Z,21.50
2019-06-20T08:15:19.568Z,22.20
2019-06-20T08:20:27.894Z,22.90
2019-06-20T08:25:38.708Z,23.80
2019-06-20T08:30:47.168Z,24.80
2019-06-20T08:35:56.959Z,24.80
2019-06-20T08:41:09.042Z,24.50
2019-06-20T08:46:18.580Z,25.10
2019-06-20T08:51:31.075Z,25.00
2019-06-20T08:56:42.555Z,25.20
2019-06-20T09:01:52.278Z,25.80
2019-06-20T09:07:05.636Z,25.60
2019-06-20T09:12:19.027Z,25.60
2019-06-20T09:17:29.979Z,26.20
2019-06-20T09:22:42.447Z,25.40
2019-06-20T09:27:52.717Z,25.80
2019-06-20T09:33:00.278Z,25.90
2019-06-20T09:38:16.651Z,26.10
2019-06-20T09:43:27.810Z,26.20
2019-06-20T09:48:35.512Z,25.90
2019-06-20T09:53:48.345Z,25.20
2019-06-20T09:58:58.140Z,25.20
2019-06-20T10:04:16.136Z,25.60
2019-06-20T10:09:24.264Z,26.00
2019-06-20T10:14:36.431Z,26.20
2019-06-20T10:19:52.064Z,26.50
2019-06-20T10:24:59.941Z,25.50
2019-06-20T10:30:15.328Z,24.70
2019-06-20T10:35:23.969Z,24.30
2019-06-20T10:40:36.206Z,24.10
2019-06-20T10:45:47.342Z,24.30
2019-06-20T10:51:07.413Z,25.30
2019-06-20T10:56:22.397Z,25.10
2019-06-20T11:01:39.831Z,24.20
2019-06-20T11:06:49.562Z,23.70
2019-06-20T11:11:57.236Z,22.70
2019-06-20T11:17:09.902Z,22.40
2019-06-20T11:22:17.604Z,22.80
2019-06-20T11:27:28.794Z,23.40
2019-06-20T11:32:36.603Z,23.80
2019-06-20T11:37:47.257Z,24.50
2019-06-20T11:42:56.629Z,24.20
2019-06-20T11:48:05.281Z,24.10
2019-06-20T11:53:13.172Z,25.00
2019-06-20T11:58:26.468Z,25.70
2019-06-20T12:03:39.048Z,25.80
2019-06-20T12:08:50.913Z,25.40
2019-06-20T12:14:08.452Z,24.80
2019-06-20T12:19:22.151Z,24.50
2019-06-20T12:24:38.150Z,24.30
2019-06-20T12:29:52.780Z,23.90
2019-06-20T12:35:01.190Z,23.80
2019-06-20T12:40:18.771Z,23.70
2019-06-20T12:45:28.139Z,23.50
2019-06-20T12:50:36.140Z,23.40
2019-06-20T12:55:45.751Z,23.60
2019-06-20T13:00:54.089Z,24.60
2019-06-20T13:06:05.716Z,25.30
2019-06-20T13:11:17.498Z,25.60
2019-06-20T13:16:29.299Z,25.70
2019-06-20T13:21:42.088Z,26.00
2019-06-20T13:26:50.704Z,25.90
2019-06-20T13:32:04.000Z,25.60
2019-06-20T13:37:07.812Z,25.40
2019-06-20T13:42:19.993Z,25.60
2019-06-20T13:47:30.939Z,25.00
2019-06-20T13:52:41.903Z,24.80
2019-06-20T13:57:49.656Z,24.30
2019-06-20T14:02:57.931Z,23.70
2019-06-20T14:08:05.973Z,23.10
2019-06-20T14:13:19.111Z,22.80
2019-06-20T14:18:30.187Z,22.50
2019-06-20T14:23:38.340Z,22.00
2019-06-20T14:28:46.166Z,21.90
2019-06-20T14:33:59.362Z,21.70
2019-06-20T14:39:12.953Z,21.60
2019-06-20T14:44:21.482Z,21.70
2019-06-20T14:49:29.569Z,21.40
2019-06-20T14:54:37.647Z,21.40
2019-06-20T14:59:52.564Z,21.50
2019-06-20T15:05:01.714Z,21.50
2019-06-20T15:10:10.552Z,21.30
2019-06-20T15:15:22.580Z,21.50
2019-06-20T15:20:34.853Z,22.10
2019-06-20T15:25:42.991Z,22.10
2019-06-20T15:30:59.396Z,22.10
2019-06-20T15:36:19.621Z,22.10
2019-06-20T15:41:42.159Z,22.70
2019-06-20T15:46:51.392Z,24.00
2019-06-20T15:52:05.814Z,25.00
2019-06-20T15:57:14.334Z,25.30
2019-06-20T16:02:21.480Z,24.10
2019-06-20T16:07:43.426Z,23.50
2019-06-20T16:12:52.073Z,23.30
2019-06-20T16:18:03.810Z,23.50
2019-06-20T16:23:11.819Z,24.30
2019-06-20T16:28:21.339Z,24.90
2019-06-20T16:33:33.131Z,24.10
2019-06-20T16:38:41.967Z,23.40
2019-06-20T16:43:50.088Z,23.20
2019-06-20T16:48:59.207Z,23.40
2019-06-20T16:54:06.903Z,24.00
2019-06-20T16:59:14.835Z,24.30
2019-06-20T17:04:22.801Z,24.10
2019-06-20T17:09:30.691Z,23.80
2019-06-20T17:14:43.896Z,23.70
2019-06-20T17:19:51.699Z,23.50
2019-06-20T17:25:01.275Z,23.30
2019-06-20T17:30:15.072Z,23.10
2019-06-20T17:35:25.961Z,23.10
2019-06-20T17:40:34.106Z,23.10
2019-06-20T17:45:43.830Z,22.90
2019-06-20T17:50:52.035Z,22.70
2019-06-20T17:56:01.512Z,22.50
2019-06-20T18:01:13.315Z,22.60
2019-06-20T18:06:21.337Z,22.70
2019-06-20T18:11:32.143Z,22.60
2019-06-20T18:16:48.511Z,22.50
2019-06-20T18:21:55.697Z,22.60
2019-06-20T18:27:02.384Z,22.60
2019-06-20T18:32:13.257Z,22.50
2019-06-20T18:37:31.576Z,22.30
2019-06-20T18:42:32.623Z,22.20
2019-06-20T18:47:40.411Z,22.30
2019-06-20T18:52:52.417Z,22.40
2019-06-20T18:58:03.927Z,22.30
2019-06-20T19:03:15.716Z,22.00
2019-06-20T19:08:24.394Z,21.70
2019-06-20T19:13:36.759Z,21.60
2019-06-20T19:18:53.030Z,21.40
2019-06-20T19:24:04.857Z,21.20
2019-06-20T19:29:12.687Z,21.00
2019-06-20T19:34:20.797Z,21.10
2019-06-20T19:39:32.587Z,21.00
2019-06-20T19:44:40.914Z,21.00
2019-06-20T19:49:54.773Z,21.00
2019-06-20T19:55:02.726Z,20.90
2019-06-20T20:00:12.221Z,20.80
2019-06-20T20:05:24.614Z,20.70
2019-06-20T20:10:46.247Z,20.70
2019-06-20T20:15:57.769Z,20.70
2019-06-20T20:21:04.097Z,20.60
2019-06-20T20:26:13.279Z,20.50
2019-06-20T20:31:22.902Z,20.40
2019-06-20T20:36:32.419Z,20.30
2019-06-20T20:41:52.412Z,20.30
2019-06-20T20:47:01.191Z,20.10
2019-06-20T20:52:10.469Z,20.10
2019-06-20T20:57:18.848Z,20.00
2019-06-20T21:02:27.787Z,19.80
2019-06-20T21:07:39.070Z,19.60
2019-06-20T21:12:49.364Z,19.50
2019-06-20T21:17:56.395Z,19.40
2019-06-20T21:23:04.380Z,19.40
2019-06-20T21:28:12.657Z,19.20
2019-06-20T21:33:19.476Z,19.20
2019-06-20T21:38:27.686Z,19.10
2019-06-20T21:43:35.797Z,19.00
2019-06-20T21:48:43.760Z,18.90
2019-06-20T21:53:56.551Z,18.80
2019-06-20T21:59:04.826Z,18.80
2019-06-20T22:04:16.475Z,18.80
2019-06-20T22:09:24.977Z,18.90
2019-06-20T22:14:39.172Z,18.90
2019-06-20T22:19:47.223Z,18.80
2019-06-20T22:25:03.359Z,18.60
2019-06-20T22:30:12.524Z,18.60
2019-06-20T22:35:20.438Z,18.60
2019-06-20T22:40:28.426Z,18.40
2019-06-20T22:45:44.468Z,18.70
2019-06-20T22:50:52.491Z,18.90
2019-06-20T22:56:01.330Z,18.90
2019-06-20T23:01:09.166Z,18.80
2019-06-20T23:06:15.915Z,18.70
2019-06-20T23:11:22.115Z,18.50
2019-06-20T23:16:28.803Z,18.30
2019-06-20T23:21:35.419Z,18.40
2019-06-20T23:26:43.819Z,18.20
2019-06-20T23:31:50.452Z,18.20
2019-06-20T23:37:12.161Z,18.00
2019-06-20T23:42:07.527Z,18.00
2019-06-20T23:47:15.123Z,18.00
2019-06-20T23:52:25.408Z,18.00
2019-06-20T23:57:34.225Z,18.10
